Time;durP1;ratioP1;P1;durP2;ratioP2;P2;SDS_P1;SDS_P2;PMS_P1;PMS_P2;Temp;Humidity;BMP_temperature;BMP_pressure;BME280_temperature;BME280_humidity;BME280_pressure;Samples;Min_cycle;Max_cycle;Signal;HPM_P1;HPM_P2
2023/12/09 00:01:24;;;;;;;9.80;3.30;;;8.70;1.00;;;;;;6278317;22;20263;-85
2023/12/09 00:03:50;;;;;;;18.40;4.57;;;8.70;1.00;;;;;;6278620;22;20168;-87
2023/12/09 00:06:16;;;;;;;13.83;4.10;;;8.70;1.00;;;;;;6251317;22;20184;-87
2023/12/09 00:08:41;;;;;;;12.47;4.90;;;8.70;1.00;;;;;;6280367;22;20379;-87
2023/12/09 00:11:07;;;;;;;14.30;4.87;;;8.60;1.00;;;;;;6278751;22;20210;-84
2023/12/09 00:13:33;;;;;;;18.73;3.80;;;8.60;1.00;;;;;;6280111;22;20199;-87
2023/12/09 00:15:59;;;;;;;16.20;4.63;;;8.60;1.00;;;;;;6251432;22;20161;-86
2023/12/09 00:18:25;;;;;;;13.53;4.00;;;8.60;1.00;;;;;;6279120;22;20149;-86
2023/12/09 00:20:50;;;;;;;14.60;3.90;;;8.50;1.00;;;;;;6278384;22;20411;-85
2023/12/09 00:23:16;;;;;;;17.40;3.83;;;8.50;1.00;;;;;;6250264;22;20411;-84
2023/12/09 00:25:41;;;;;;;12.63;4.03;;;8.50;1.00;;;;;;6276277;22;20207;-84
2023/12/09 00:28:07;;;;;;;13.40;4.17;;;8.60;1.00;;;;;;6276848;22;20175;-85
2023/12/09 00:30:33;;;;;;;17.10;3.70;;;8.60;1.00;;;;;;6252686;22;20883;-85
2023/12/09 00:32:58;;;;;;;17.17;4.43;;;8.60;1.00;;;;;;6279988;22;20155;-85
2023/12/09 00:35:24;;;;;;;14.30;4.20;;;8.60;1.00;;;;;;6279081;22;20175;-86
2023/12/09 00:37:50;;;;;;;8.10;4.20;;;8.60;1.00;;;;;;6279157;22;20144;-86
2023/12/09 00:40:17;;;;;;;11.80;3.90;;;8.60;1.00;;;;;;6277061;22;20183;-86
2023/12/09 00:42:42;;;;;;;22.30;4.50;;;8.60;1.00;;;;;;6278258;22;20823;-85
2023/12/09 00:45:08;;;;;;;17.70;5.27;;;8.50;1.00;;;;;;6278603;22;20392;-86
2023/12/09 00:47:33;;;;;;;12.97;4.97;;;8.50;1.00;;;;;;6277419;22;20574;-86
2023/12/09 00:50:00;;;;;;;19.63;4.23;;;8.50;1.00;;;;;;6278911;22;20372;-86
2023/12/09 00:52:25;;;;;;;12.77;4.20;;;8.50;1.00;;;;;;6277791;22;20148;-85
2023/12/09 00:54:51;;;;;;;10.63;4.67;;;8.50;1.00;;;;;;6277734;22;20419;-86
2023/12/09 00:57:16;;;;;;;14.90;4.90;;;8.50;1.00;;;;;;6277513;22;20156;-86
2023/12/09 00:59:42;;;;;;;15.27;4.60;;;8.60;1.00;;;;;;6251627;22;20164;-86
2023/12/09 01:02:07;;;;;;;22.43;4.40;;;8.60;1.00;;;;;;6277629;22;20631;-86
2023/12/09 01:04:33;;;;;;;15.73;4.97;;;8.70;1.00;;;;;;6274633;22;20183;-87
2023/12/09 01:06:59;;;;;;;10.30;3.60;;;8.70;1.00;;;;;;6278446;22;20205;-86
2023/12/09 01:09:24;;;;;;;11.33;4.10;;;8.70;1.00;;;;;;6278614;22;20175;-86
2023/12/09 01:11:50;;;;;;;12.87;4.27;;;8.70;1.00;;;;;;6250009;22;20168;-86
2023/12/09 01:14:15;;;;;;;13.27;3.90;;;8.70;1.00;;;;;;6277634;22;20214;-86
2023/12/09 01:16:41;;;;;;;14.30;4.60;;;8.70;1.00;;;;;;6277884;22;20180;-86
2023/12/09 01:19:07;;;;;;;21.10;4.97;;;8.70;1.00;;;;;;6251021;22;20156;-86
2023/12/09 01:21:33;;;;;;;13.10;3.90;;;8.60;1.00;;;;;;6276593;22;21161;-86
2023/12/09 01:23:58;;;;;;;11.43;4.70;;;8.60;1.00;;;;;;6277158;22;20175;-85
2023/12/09 01:26:24;;;;;;;13.17;4.70;;;8.50;1.00;;;;;;6277386;22;20145;-86
2023/12/09 01:28:49;;;;;;;15.40;4.73;;;8.50;1.00;;;;;;6251092;22;20153;-85
2023/12/09 01:31:15;;;;;;;12.37;4.60;;;8.50;1.00;;;;;;6249911;22;20164;-85
2023/12/09 01:33:41;;;;;;;26.80;5.30;;;8.40;1.00;;;;;;6277394;22;20195;-86
2023/12/09 01:36:07;;;;;;;14.80;4.70;;;8.50;1.00;;;;;;6251103;22;20184;-86
2023/12/09 01:38:34;;;;;;;14.20;3.83;;;8.50;1.00;;;;;;6278126;22;20379;-86
2023/12/09 01:41:00;;;;;;;12.10;4.60;;;8.50;1.00;;;;;;6276072;22;20447;-86
2023/12/09 01:43:25;;;;;;;14.80;5.10;;;8.60;1.00;;;;;;6277206;22;20449;-86
2023/12/09 01:45:55;;;;;;;13.97;4.50;;;8.60;1.00;;;;;;6278345;22;20145;-85
2023/12/09 01:48:22;;;;;;;11.07;3.90;;;8.60;1.00;;;;;;6250753;22;20517;-85
2023/12/09 01:50:48;;;;;;;14.87;4.40;;;8.70;1.00;;;;;;6277455;22;20462;-85
2023/12/09 01:53:14;;;;;;;19.13;5.10;;;8.70;1.00;;;;;;6249177;22;20490;-84
2023/12/09 01:55:41;;;;;;;11.00;4.47;;;8.70;1.00;;;;;;6250826;22;20709;-86
2023/12/09 01:58:08;;;;;;;16.73;5.67;;;8.70;1.00;;;;;;6250169;22;20259;-85
2023/12/09 02:00:33;;;;;;;14.30;4.30;;;8.70;1.00;;;;;;6249864;22;20414;-86
2023/12/09 02:02:59;;;;;;;15.33;5.00;;;8.70;1.00;;;;;;6277720;22;20371;-86
2023/12/09 02:05:25;;;;;;;18.73;4.40;;;8.60;1.00;;;;;;6278018;22;20155;-84
2023/12/09 02:07:51;;;;;;;12.43;5.00;;;8.60;1.00;;;;;;6277121;22;20174;-85
2023/12/09 02:10:17;;;;;;;16.00;4.40;;;8.60;1.00;;;;;;6277006;22;20454;-85
2023/12/09 02:13:30;;;;;;;15.17;4.53;;;8.60;1.00;;;;;;6276363;22;20165;-85
2023/12/09 02:16:11;;;;;;;12.63;4.00;;;8.50;1.00;;;;;;6276198;22;20372;-86
2023/12/09 02:18:41;;;;;;;14.93;4.30;;;8.50;1.00;;;;;;6250540;22;20383;-86
2023/12/09 02:21:06;;;;;;;18.40;4.13;;;8.40;1.00;;;;;;6277663;22;20411;-86
2023/12/09 02:23:32;;;;;;;13.40;3.80;;;8.40;1.00;;;;;;6248907;22;20426;-87
2023/12/09 02:26:05;;;;;;;30.63;5.53;;;8.30;1.00;;;;;;6276639;22;20153;-86
2023/12/09 02:28:33;;;;;;;15.93;5.37;;;8.20;1.00;;;;;;6277607;22;20165;-87
2023/12/09 02:31:26;;;;;;;7.60;3.53;;;8.20;1.00;;;;;;6276403;22;20387;-86
2023/12/09 02:33:53;;;;;;;12.30;3.60;;;8.10;1.00;;;;;;6250926;22;20929;-86
2023/12/09 02:36:21;;;;;;;23.20;4.77;;;8.00;1.00;;;;;;6251370;22;20473;-87
2023/12/09 02:38:48;;;;;;;14.30;3.90;;;8.00;1.00;;;;;;6249667;22;20443;-86
2023/12/09 02:41:15;;;;;;;10.37;3.30;;;7.90;1.00;;;;;;6276632;22;20415;-85
2023/12/09 02:43:44;;;;;;;18.50;4.63;;;7.80;1.00;;;;;;6249259;22;20790;-87
2023/12/09 02:46:14;;;;;;;19.73;4.80;;;7.80;1.00;;;;;;6276324;22;20149;-85
2023/12/09 02:48:39;;;;;;;8.33;4.40;;;7.80;1.00;;;;;;6275762;22;20847;-86
2023/12/09 02:51:06;;;;;;;14.20;4.23;;;7.70;1.00;;;;;;6274392;22;20391;-86
2023/12/09 02:53:32;;;;;;;11.30;3.90;;;7.60;1.00;;;;;;6250386;22;20215;-85
2023/12/09 02:55:57;;;;;;;11.80;4.00;;;7.60;1.00;;;;;;6277304;22;20360;-87
2023/12/09 02:58:23;;;;;;;16.23;5.80;;;7.60;1.00;;;;;;6275103;22;20165;-86
2023/12/09 03:00:48;;;;;;;11.80;4.00;;;7.50;1.00;;;;;;6274915;22;20223;-86
2023/12/09 03:03:14;;;;;;;19.60;4.50;;;7.50;1.00;;;;;;6276517;22;20173;-86
2023/12/09 03:05:39;;;;;;;22.13;4.77;;;7.40;1.00;;;;;;6277390;22;20659;-85
2023/12/09 03:08:05;;;;;;;12.80;4.27;;;7.40;1.00;;;;;;6276225;22;20149;-86
2023/12/09 03:10:30;;;;;;;12.53;4.77;;;7.40;1.00;;;;;;6277239;22;20179;-86
2023/12/09 03:12:56;;;;;;;11.93;4.30;;;7.40;1.00;;;;;;6276367;22;20176;-85
2023/12/09 03:15:21;;;;;;;18.70;3.40;;;7.30;1.00;;;;;;6278065;22;20202;-86
2023/12/09 03:17:47;;;;;;;13.40;4.20;;;7.30;1.00;;;;;;6278567;22;20179;-85
2023/12/09 03:20:12;;;;;;;9.77;4.00;;;7.30;1.00;;;;;;6278544;22;20157;-87
2023/12/09 03:22:38;;;;;;;12.10;4.10;;;7.30;1.00;;;;;;6279098;22;20173;-85
2023/12/09 03:25:05;;;;;;;8.70;4.10;;;7.30;1.00;;;;;;6303011;22;20197;-85
2023/12/09 03:27:30;;;;;;;11.45;3.72;;;7.20;1.00;;;;;;6277206;22;20449;-86
2023/12/09 03:29:56;;;;;;;14.60;4.80;;;7.20;1.00;;;;;;6303235;22;20597;-85
2023/12/09 03:32:21;;;;;;;20.97;4.83;;;7.20;1.00;;;;;;6279459;22;20592;-86
2023/12/09 03:34:47;;;;;;;9.63;3.67;;;7.20;1.00;;;;;;6280749;22;20176;-85
2023/12/09 03:37:12;;;;;;;21.33;4.43;;;7.20;1.00;;;;;;6279697;22;20171;-86
2023/12/09 03:39:38;;;;;;;14.80;3.60;;;7.20;1.00;;;;;;6280236;22;20156;-85
2023/12/09 03:42:03;;;;;;;14.67;4.03;;;7.20;1.00;;;;;;6279445;22;20184;-86
2023/12/09 03:44:30;;;;;;;17.97;4.37;;;7.30;1.00;;;;;;6279382;22;20165;-85
2023/12/09 03:46:55;;;;;;;17.70;4.30;;;7.20;1.00;;;;;;6280337;22;20145;-87
2023/12/09 03:49:21;;;;;;;11.97;4.03;;;7.30;1.00;;;;;;6280427;22;20152;-85
2023/12/09 03:51:46;;;;;;;11.13;4.03;;;7.20;1.00;;;;;;6303930;22;20168;-85
2023/12/09 03:54:12;;;;;;;9.33;3.63;;;7.30;1.00;;;;;;6280232;22;20238;-86
2023/12/09 03:56:37;;;;;;;12.97;3.80;;;7.30;1.00;;;;;;6253979;22;20211;-85
2023/12/09 03:59:03;;;;;;;15.23;3.97;;;7.30;1.00;;;;;;6254021;22;20216;-89
2023/12/09 04:01:29;;;;;;;15.13;3.67;;;7.30;1.00;;;;;;6253014;22;20184;-86
2023/12/09 04:03:55;;;;;;;12.30;4.20;;;7.40;1.00;;;;;;6278510;22;20247;-86
2023/12/09 04:06:21;;;;;;;17.57;3.77;;;7.30;1.00;;;;;;6279400;22;20145;-84
2023/12/09 04:08:46;;;;;;;17.47;4.43;;;7.30;1.00;;;;;;6280031;22;20176;-86
2023/12/09 04:11:12;;;;;;;14.30;4.50;;;7.30;1.00;;;;;;6279664;22;20379;-86
2023/12/09 04:13:39;;;;;;;25.33;4.10;;;7.30;1.00;;;;;;6280507;22;20306;-86
2023/12/09 04:16:06;;;;;;;15.87;3.63;;;7.30;1.00;;;;;;6281408;22;20152;-86
2023/12/09 04:18:31;;;;;;;20.37;4.10;;;7.30;1.00;;;;;;6280217;22;20458;-86
2023/12/09 04:20:57;;;;;;;11.97;3.93;;;7.30;1.00;;;;;;6252313;22;20461;-86
2023/12/09 04:23:23;;;;;;;12.30;3.70;;;7.30;1.00;;;;;;6278594;22;20251;-86
2023/12/09 04:25:48;;;;;;;10.07;3.40;;;7.30;1.00;;;;;;6280802;22;20144;-85
2023/12/09 04:28:14;;;;;;;12.37;3.20;;;7.30;1.00;;;;;;6278419;22;20199;-87
2023/12/09 04:30:39;;;;;;;10.90;3.97;;;7.30;1.00;;;;;;6279536;22;20202;-85
2023/12/09 04:33:05;;;;;;;12.10;3.60;;;7.20;1.00;;;;;;6252555;22;20203;-86
2023/12/09 04:35:30;;;;;;;18.50;4.30;;;7.20;1.00;;;;;;6279955;22;20159;-87
2023/12/09 04:37:56;;;;;;;11.60;4.10;;;7.20;1.00;;;;;;6279797;22;20168;-86
2023/12/09 04:40:21;;;;;;;20.03;5.83;;;7.20;1.00;;;;;;6277555;22;20195;-86
2023/12/09 04:42:47;;;;;;;10.43;3.33;;;7.10;1.00;;;;;;6278950;22;20206;-86
2023/12/09 04:45:13;;;;;;;18.80;3.70;;;7.10;1.00;;;;;;6279243;22;20168;-87
2023/12/09 04:47:39;;;;;;;14.43;3.70;;;7.00;1.00;;;;;;6280150;22;20406;-86
2023/12/09 04:50:08;;;;;;;16.40;5.23;;;7.00;1.00;;;;;;6279534;22;20231;-86
2023/12/09 04:52:34;;;;;;;15.18;5.22;;;6.90;1.00;;;;;;6279697;22;20148;-86
2023/12/09 04:55:00;;;;;;;8.90;3.07;;;6.90;1.00;;;;;;6272489;22;20196;-86
2023/12/09 04:57:25;;;;;;;12.43;4.60;;;6.80;1.00;;;;;;6280402;22;20407;-89
2023/12/09 04:59:51;;;;;;;11.83;5.00;;;6.80;1.00;;;;;;6278195;22;20160;-87
2023/12/09 05:02:16;;;;;;;8.30;3.90;;;6.80;1.00;;;;;;6279580;22;20176;-85
2023/12/09 05:04:42;;;;;;;23.10;5.10;;;6.80;1.00;;;;;;6279488;22;20229;-86
2023/12/09 05:07:07;;;;;;;15.70;4.40;;;6.70;1.00;;;;;;6279269;22;20156;-86
2023/12/09 05:09:33;;;;;;;16.00;4.40;;;6.80;1.00;;;;;;6280234;22;20153;-86
2023/12/09 05:11:58;;;;;;;10.67;6.30;;;6.80;1.00;;;;;;6279721;22;20144;-87
2023/12/09 05:14:24;;;;;;;15.30;6.30;;;6.80;1.00;;;;;;6279735;22;20219;-86
2023/12/09 05:16:50;;;;;;;12.30;4.60;;;6.80;1.00;;;;;;6279826;22;20148;-86
2023/12/09 05:19:15;;;;;;;21.07;12.77;;;6.70;1.00;;;;;;6277215;22;20631;-86
2023/12/09 05:21:41;;;;;;;12.13;6.63;;;6.70;1.00;;;;;;6279574;22;20447;-86
2023/12/09 05:24:07;;;;;;;53.17;32.60;;;6.70;1.00;;;;;;6279461;22;20169;-86
2023/12/09 05:26:33;;;;;;;15.13;11.17;;;6.70;1.00;;;;;;6278146;22;20157;-86
2023/12/09 05:28:59;;;;;;;16.58;10.05;;;6.70;1.00;;;;;;6277942;22;20156;-85
2023/12/09 05:31:24;;;;;;;15.70;6.00;;;6.60;1.00;;;;;;6279984;22;20149;-86
2023/12/09 05:33:50;;;;;;;10.13;5.63;;;6.60;1.00;;;;;;6280092;22;20176;-86
2023/12/09 05:36:16;;;;;;;9.57;6.57;;;6.60;1.00;;;;;;6279968;22;20222;-86
2023/12/09 05:38:42;;;;;;;13.30;7.03;;;6.60;1.00;;;;;;6281356;22;20862;-86
2023/12/09 05:41:09;;;;;;;14.88;4.10;;;6.60;1.00;;;;;;6280393;22;20423;-86
2023/12/09 05:43:36;;;;;;;14.27;5.47;;;6.60;1.00;;;;;;6279355;22;20161;-86
2023/12/09 05:46:02;;;;;;;11.23;3.95;;;6.60;1.00;;;;;;6276201;22;20153;-86
2023/12/09 05:48:27;;;;;;;9.47;3.80;;;6.60;1.00;;;;;;6276775;22;20482;-86
2023/12/09 05:50:53;;;;;;;7.93;4.17;;;6.50;1.00;;;;;;6278868;22;20194;-85
2023/12/09 05:53:18;;;;;;;17.17;5.03;;;6.50;1.00;;;;;;6277807;22;20628;-86
2023/12/09 05:55:44;;;;;;;13.93;5.43;;;6.40;1.00;;;;;;6275878;22;20149;-85
2023/12/09 05:58:09;;;;;;;10.27;4.03;;;6.40;1.00;;;;;;6278330;22;20628;-86
2023/12/09 06:00:35;;;;;;;12.67;4.53;;;6.30;1.00;;;;;;6278755;22;20149;-86
2023/12/09 06:03:00;;;;;;;8.60;3.07;;;6.30;1.00;;;;;;6249866;22;20192;-87
2023/12/09 06:05:27;;;;;;;15.93;4.27;;;6.20;1.00;;;;;;6278059;22;20141;-87
2023/12/09 06:07:52;;;;;;;13.65;3.40;;;6.30;1.00;;;;;;6279036;22;20205;-85
2023/12/09 06:10:18;;;;;;;14.80;4.67;;;6.30;1.00;;;;;;6277930;22;20597;-86
2023/12/09 06:12:43;;;;;;;15.63;3.80;;;6.20;1.00;;;;;;6250492;22;20619;-89
2023/12/09 06:15:09;;;;;;;9.67;3.50;;;6.20;1.00;;;;;;6278630;22;20168;-84
2023/12/09 06:17:34;;;;;;;11.23;3.60;;;6.20;1.00;;;;;;6277077;22;20191;-86
2023/12/09 06:20:00;;;;;;;11.13;3.70;;;6.10;1.00;;;;;;6277643;22;20149;-86
2023/12/09 06:22:26;;;;;;;9.07;3.17;;;6.10;1.00;;;;;;6276801;22;20172;-86
2023/12/09 06:24:51;;;;;;;6.97;2.83;;;6.10;1.00;;;;;;6278598;22;20175;-85
2023/12/09 06:27:17;;;;;;;10.17;2.40;;;6.10;1.00;;;;;;6278078;22;20188;-86
2023/12/09 06:29:46;;;;;;;15.15;3.05;;;6.10;1.00;;;;;;6251853;22;20180;-85
2023/12/09 06:32:15;;;;;;;10.27;4.10;;;6.10;1.00;;;;;;6250602;22;20165;-86
2023/12/09 06:34:40;;;;;;;16.02;5.70;;;6.10;1.00;;;;;;6249367;22;20222;-89
2023/12/09 06:37:06;;;;;;;9.37;3.00;;;6.10;1.00;;;;;;6276827;22;20771;-85
2023/12/09 06:39:31;;;;;;;14.00;4.97;;;6.10;1.00;;;;;;6275042;22;20153;-86
2023/12/09 06:41:57;;;;;;;11.33;3.40;;;6.20;1.00;;;;;;6249355;22;20180;-89
2023/12/09 06:44:22;;;;;;;6.63;3.40;;;6.20;1.00;;;;;;6249703;22;20580;-86
2023/12/09 06:46:48;;;;;;;12.37;3.87;;;6.20;1.00;;;;;;6275676;22;20149;-86
2023/12/09 06:49:19;;;;;;;17.33;6.10;;;6.10;1.00;;;;;;6277394;22;20145;-87
2023/12/09 06:51:45;;;;;;;9.25;5.78;;;6.10;1.00;;;;;;6278452;22;20141;-85
2023/12/09 06:54:11;;;;;;;8.75;5.95;;;6.10;1.00;;;;;;6277147;22;20701;-86
2023/12/09 06:56:37;;;;;;;11.27;4.23;;;6.10;1.00;;;;;;6276525;22;20220;-85
2023/12/09 06:59:03;;;;;;;8.57;3.40;;;6.10;1.00;;;;;;6249995;22;20169;-84
2023/12/09 07:01:29;;;;;;;10.80;3.47;;;6.00;1.00;;;;;;6276928;22;20454;-86
2023/12/09 07:03:55;;;;;;;8.13;3.90;;;6.00;1.00;;;;;;6249348;22;20200;-85
2023/12/09 07:06:25;;;;;;;12.45;4.05;;;6.00;1.00;;;;;;6277602;22;20232;-86
2023/12/09 07:08:51;;;;;;;8.10;3.13;;;6.00;1.00;;;;;;6279643;22;20140;-85
2023/12/09 07:11:17;;;;;;;6.70;3.35;;;6.00;1.00;;;;;;6251120;22;20258;-85
2023/12/09 07:13:43;;;;;;;5.35;2.90;;;6.00;1.00;;;;;;6278874;22;20177;-86
2023/12/09 07:16:10;;;;;;;8.00;2.90;;;6.00;1.00;;;;;;6277859;22;20228;-87
2023/12/09 07:18:46;;;;;;;9.38;4.40;;;6.10;1.00;;;;;;6276188;22;20164;-84
2023/12/09 07:21:14;;;;;;;10.82;4.35;;;6.10;1.00;;;;;;6250019;22;20172;-84
2023/12/09 07:23:40;;;;;;;9.00;5.13;;;6.10;1.00;;;;;;6278880;22;20164;-84
2023/12/09 07:26:08;;;;;;;9.87;4.77;;;6.10;1.00;;;;;;6279375;22;20236;-84
2023/12/09 07:28:34;;;;;;;8.75;3.63;;;6.10;1.00;;;;;;6279141;22;20609;-83
2023/12/09 07:31:00;;;;;;;5.23;2.87;;;6.20;1.00;;;;;;6279449;22;20156;-87
2023/12/09 07:33:25;;;;;;;6.15;2.75;;;6.20;1.00;;;;;;6277821;22;20172;-84
2023/12/09 07:35:54;;;;;;;4.73;2.47;;;6.20;1.00;;;;;;6279075;22;20151;-83
2023/12/09 07:38:20;;;;;;;8.40;2.88;;;6.20;1.00;;;;;;6251841;22;20161;-84
2023/12/09 07:40:48;;;;;;;5.20;2.40;;;6.20;1.00;;;;;;6277925;22;20198;-83
2023/12/09 07:43:13;;;;;;;10.80;2.85;;;6.30;1.00;;;;;;6278941;22;20169;-83
2023/12/09 07:45:39;;;;;;;11.60;2.63;;;6.30;1.00;;;;;;6279406;22;20155;-84
2023/12/09 07:48:05;;;;;;;9.97;3.20;;;6.30;1.00;;;;;;6278629;22;20153;-84
2023/12/09 07:50:34;;;;;;;8.23;2.83;;;6.30;1.00;;;;;;6277892;22;20184;-84
2023/12/09 07:53:00;;;;;;;12.25;2.53;;;6.30;1.00;;;;;;6250430;22;20247;-84
2023/12/09 07:55:31;;;;;;;9.17;2.80;;;6.30;1.00;;;;;;6278110;22;20249;-82
2023/12/09 07:57:57;;;;;;;14.75;3.25;;;6.40;1.00;;;;;;6278284;22;20387;-85
2023/12/09 08:00:26;;;;;;;7.57;2.57;;;6.40;1.00;;;;;;6277499;22;20160;-83
2023/12/09 08:02:55;;;;;;;9.38;2.58;;;6.50;1.00;;;;;;6278937;22;20177;-84
2023/12/09 08:05:22;;;;;;;6.03;2.80;;;6.50;1.00;;;;;;6278548;22;20153;-83
2023/12/09 08:07:48;;;;;;;5.57;2.90;;;6.60;1.00;;;;;;6278490;22;20141;-84
2023/12/09 08:10:13;;;;;;;5.67;2.30;;;6.70;1.00;;;;;;6251886;22;20153;-84
2023/12/09 08:12:39;;;;;;;19.57;3.03;;;6.70;1.00;;;;;;6251275;22;20391;-83
2023/12/09 08:15:05;;;;;;;11.87;2.93;;;6.90;1.00;;;;;;6277040;22;20197;-85
2023/12/09 08:17:31;;;;;;;7.28;3.17;;;6.90;1.00;;;;;;6277173;22;20149;-84
2023/12/09 08:19:56;;;;;;;6.10;2.53;;;6.90;1.00;;;;;;6276788;22;20149;-84
2023/12/09 08:22:22;;;;;;;10.63;3.80;;;7.00;1.00;;;;;;6277310;22;20187;-86
2023/12/09 08:24:47;;;;;;;12.80;4.80;;;7.00;1.00;;;;;;6277802;22;20176;-84
2023/12/09 08:27:21;;;;;;;11.97;5.80;;;7.00;1.00;;;;;;6276806;22;20149;-84
2023/12/09 08:29:47;;;;;;;13.07;4.50;;;7.10;1.00;;;;;;6278409;22;20145;-84
2023/12/09 08:32:12;;;;;;;11.10;4.17;;;7.20;1.00;;;;;;6277560;22;20175;-84
2023/12/09 08:34:38;;;;;;;7.53;3.50;;;7.20;1.00;;;;;;6277168;22;20169;-84
2023/12/09 08:37:03;;;;;;;12.03;3.80;;;7.30;99.90;;;;;;6250332;22;20157;-83
2023/12/09 08:39:30;;;;;;;13.00;3.40;;;7.30;99.90;;;;;;6282530;22;20638;-85
2023/12/09 08:41:56;;;;;;;14.38;3.72;;;7.30;1.00;;;;;;6279601;22;20230;-87
2023/12/09 08:44:21;;;;;;;6.17;2.83;;;7.40;99.90;;;;;;6250220;22;20168;-85
2023/12/09 08:46:47;;;;;;;10.80;4.10;;;7.50;99.90;;;;;;6249706;22;20678;-85
2023/12/09 08:49:12;;;;;;;8.23;4.30;;;7.50;99.90;;;;;;6250513;22;20163;-85
2023/12/09 08:51:48;;;;;;;9.33;4.53;;;7.60;99.90;;;;;;6277505;22;20153;-85
2023/12/09 08:54:14;;;;;;;13.57;5.28;;;7.70;99.90;;;;;;6277576;22;20194;-85
2023/12/09 08:56:40;;;;;;;10.23;4.20;;;7.70;99.90;;;;;;6278048;22;20176;-85
2023/12/09 08:59:07;;;;;;;7.83;4.07;;;7.80;99.90;;;;;;6278761;22;20429;-85
2023/12/09 09:01:34;;;;;;;9.83;4.93;;;7.90;99.90;;;;;;6249293;22;20514;-85
2023/12/09 09:04:01;;;;;;;10.87;3.90;;;7.90;99.90;;;;;;6249698;22;20446;-85
2023/12/09 09:06:26;;;;;;;11.53;3.53;;;8.20;99.90;;;;;;6250619;22;20384;-86
2023/12/09 09:08:52;;;;;;;11.60;4.30;;;8.30;94.10;;;;;;6276796;22;20391;-85
2023/12/09 09:11:17;;;;;;;13.13;3.40;;;8.40;1.00;;;;;;6275887;22;20156;-84
2023/12/09 09:13:43;;;;;;;16.00;3.10;;;8.60;1.00;;;;;;6275770;22;20180;-85
2023/12/09 09:16:08;;;;;;;7.73;3.03;;;8.70;1.00;;;;;;6276283;22;20153;-85
2023/12/09 09:18:34;;;;;;;13.40;3.50;;;8.90;99.90;;;;;;6277773;22;20199;-85
2023/12/09 09:21:00;;;;;;;14.70;3.50;;;8.90;99.90;;;;;;6276132;22;20522;-85
2023/12/09 09:23:25;;;;;;;6.77;2.70;;;8.90;1.00;;;;;;6275413;22;20168;-86
2023/12/09 09:25:51;;;;;;;5.80;3.23;;;8.90;1.00;;;;;;6275335;22;20552;-83
2023/12/09 09:28:17;;;;;;;7.73;2.73;;;8.90;99.90;;;;;;6275470;22;20541;-85
2023/12/09 09:30:42;;;;;;;7.67;3.00;;;8.90;38.50;;;;;;6248082;22;20391;-85
2023/12/09 09:33:09;;;;;;;11.23;4.67;;;8.90;99.90;;;;;;6247483;22;20410;-85
2023/12/09 09:35:34;;;;;;;6.93;2.93;;;9.10;99.90;;;;;;6277432;22;20156;-85
2023/12/09 09:38:05;;;;;;;11.70;2.90;;;9.10;1.00;;;;;;6246202;22;20383;-85
2023/12/09 09:40:31;;;;;;;33.53;17.80;;;9.20;99.90;;;;;;6275954;22;20141;-82
2023/12/09 09:42:59;;;;;;;11.57;3.90;;;9.30;1.00;;;;;;6249944;22;20434;-82
2023/12/09 09:45:27;;;;;;;159.80;115.53;;;9.40;99.90;;;;;;6276670;22;20145;-82
2023/12/09 09:47:55;;;;;;;30.17;26.03;;;9.50;1.00;;;;;;6276371;22;20379;-84
2023/12/09 09:50:26;;;;;;;12.93;5.50;;;9.50;99.90;;;;;;6277150;22;20451;-82
2023/12/09 09:52:53;;;;;;;16.43;7.10;;;9.60;1.00;;;;;;6276727;22;20413;-84
2023/12/09 09:55:21;;;;;;;6.30;5.17;;;9.60;98.70;;;;;;6270617;22;20414;-87
2023/12/09 09:57:48;;;;;;;35.77;32.67;;;9.70;99.90;;;;;;6274618;22;20387;-84
2023/12/09 10:00:16;;;;;;;17.73;16.00;;;9.80;99.90;;;;;;6274276;22;20387;-85
2023/12/09 10:02:50;;;;;;;20.10;13.97;;;10.10;99.90;;;;;;6276068;22;20450;-83
2023/12/09 10:05:20;;;;;;;17.13;7.47;;;10.30;99.90;;;;;;6274764;22;20344;-85
2023/12/09 10:07:46;;;;;;;35.40;32.47;;;10.50;99.90;;;;;;6273383;22;20410;-86
2023/12/09 10:10:13;;;;;;;27.60;25.03;;;10.90;99.90;;;;;;6299335;22;20387;-86
2023/12/09 10:12:40;;;;;;;8.00;4.00;;;11.20;1.00;;;;;;6275618;22;20379;-86
2023/12/09 10:15:07;;;;;;;20.50;5.50;;;11.50;1.00;;;;;;6274405;22;20403;-85
2023/12/09 10:17:33;;;;;;;12.03;3.13;;;11.60;99.90;;;;;;6297833;22;20439;-84
2023/12/09 10:20:00;;;;;;;12.00;4.00;;;11.70;99.90;;;;;;6274628;22;20379;-85
2023/12/09 10:22:29;;;;;;;11.93;3.37;;;11.70;1.00;;;;;;6273182;22;21125;-85
2023/12/09 10:24:55;;;;;;;9.20;3.47;;;11.60;1.00;;;;;;6275338;22;20509;-86
2023/12/09 10:27:24;;;;;;;6.90;3.20;;;11.70;1.00;;;;;;6272573;22;20386;-85
2023/12/09 10:29:52;;;;;;;9.03;3.23;;;11.80;1.00;;;;;;6270818;22;20383;-85
2023/12/09 10:32:21;;;;;;;12.23;3.40;;;11.90;1.00;;;;;;6271127;22;20430;-85
2023/12/09 10:34:48;;;;;;;13.10;3.67;;;11.90;1.00;;;;;;6273717;22;20418;-86
2023/12/09 10:37:15;;;;;;;12.77;4.87;;;12.10;36.70;;;;;;6273574;22;20389;-86
2023/12/09 10:40:08;;;;;;;5.20;3.00;;;12.00;1.00;;;;;;6274065;22;20371;-86
2023/12/09 10:42:37;;;;;;;7.60;3.20;;;11.80;8.20;;;;;;6273101;22;20418;-84
2023/12/09 10:45:05;;;;;;;14.87;3.43;;;11.70;99.90;;;;;;6274568;22;20410;-85
2023/12/09 10:47:40;;;;;;;7.70;3.10;;;11.50;12.30;;;;;;6274905;22;20375;-85
2023/12/09 10:50:07;;;;;;;7.00;3.20;;;11.40;99.90;;;;;;6276244;22;20366;-85
2023/12/09 10:52:32;;;;;;;8.20;3.23;;;11.20;1.00;;;;;;6274192;22;20427;-85
2023/12/09 10:54:58;;;;;;;9.53;3.53;;;11.10;1.00;;;;;;6277664;22;20411;-84
2023/12/09 10:57:24;;;;;;;13.50;3.37;;;11.00;72.50;;;;;;6246313;22;20665;-85
2023/12/09 10:59:50;;;;;;;12.70;3.13;;;10.80;99.90;;;;;;6275550;22;20454;-84
2023/12/09 11:02:18;;;;;;;7.37;3.33;;;10.70;1.00;;;;;;6245611;22;20419;-83
2023/12/09 11:04:45;;;;;;;6.73;3.20;;;10.70;1.00;;;;;;6276060;22;20177;-82
2023/12/09 11:07:11;;;;;;;5.40;2.67;;;10.60;98.90;;;;;;6277055;22;20721;-83
2023/12/09 11:09:37;;;;;;;8.57;2.70;;;10.50;99.90;;;;;;6277281;22;20428;-83
2023/12/09 11:12:03;;;;;;;6.97;2.73;;;10.50;99.90;;;;;;6276569;22;20902;-83
2023/12/09 11:14:30;;;;;;;7.70;2.50;;;10.40;1.00;;;;;;6277164;22;20392;-83
2023/12/09 11:17:01;;;;;;;6.40;2.53;;;10.40;1.00;;;;;;6276380;22;20686;-83
2023/12/09 11:19:27;;;;;;;6.73;2.80;;;10.40;1.00;;;;;;6249913;22;20371;-83
2023/12/09 11:21:53;;;;;;;7.67;3.07;;;10.30;99.90;;;;;;6277869;22;20812;-83
2023/12/09 11:24:19;;;;;;;7.40;3.10;;;10.30;1.00;;;;;;6275685;22;20180;-83
2023/12/09 11:26:50;;;;;;;10.43;3.03;;;10.20;1.00;;;;;;6277996;22;20529;-84
2023/12/09 11:29:17;;;;;;;14.83;6.00;;;10.20;1.00;;;;;;6249673;22;20421;-82
2023/12/09 11:31:48;;;;;;;6.00;2.40;;;10.20;1.00;;;;;;6276334;22;20437;-84
2023/12/09 11:34:21;;;;;;;9.60;2.93;;;10.20;55.20;;;;;;6274885;22;20413;-82
2023/12/09 11:36:48;;;;;;;7.93;4.13;;;10.30;1.00;;;;;;6277561;22;20368;-82
2023/12/09 11:39:17;;;;;;;7.73;4.70;;;10.20;1.00;;;;;;6280566;22;20379;-83
2023/12/09 11:41:44;;;;;;;7.07;4.37;;;10.30;99.90;;;;;;6279878;22;20371;-83
2023/12/09 11:44:10;;;;;;;11.57;3.40;;;10.30;51.20;;;;;;6281153;22;20402;-84
2023/12/09 11:46:37;;;;;;;5.30;2.17;;;10.40;99.90;;;;;;6280867;22;20921;-82
2023/12/09 11:49:04;;;;;;;6.60;3.27;;;10.50;99.90;;;;;;6253784;22;20926;-84
2023/12/09 11:51:30;;;;;;;8.93;2.53;;;10.40;99.90;;;;;;6279255;22;20423;-84
2023/12/09 11:53:57;;;;;;;6.50;2.13;;;10.30;96.80;;;;;;6280658;22;20410;-83
2023/12/09 11:56:24;;;;;;;4.97;2.53;;;10.40;99.90;;;;;;6279606;22;20437;-84
2023/12/09 11:58:50;;;;;;;5.87;2.60;;;10.30;99.90;;;;;;6279995;22;20413;-84
2023/12/09 12:01:19;;;;;;;5.93;2.20;;;10.20;1.00;;;;;;6278868;22;20379;-84
2023/12/09 12:03:48;;;;;;;5.63;2.80;;;10.20;1.00;;;;;;6279037;22;20487;-83
2023/12/09 12:06:15;;;;;;;15.60;7.70;;;10.10;1.00;;;;;;6279519;22;20458;-83
2023/12/09 12:08:42;;;;;;;10.00;2.20;;;10.10;1.00;;;;;;6252474;22;20379;-83
2023/12/09 12:11:08;;;;;;;9.87;3.60;;;10.00;1.00;;;;;;6252718;22;20772;-84
2023/12/09 12:13:34;;;;;;;7.33;3.47;;;9.90;1.00;;;;;;6279035;22;20395;-83
2023/12/09 12:15:59;;;;;;;10.50;6.50;;;9.90;1.00;;;;;;6278556;22;21034;-84
2023/12/09 12:18:27;;;;;;;8.43;3.07;;;9.90;1.00;;;;;;6278714;22;20175;-84
2023/12/09 12:20:53;;;;;;;10.10;4.03;;;9.80;1.00;;;;;;6278381;22;20207;-84
2023/12/09 12:23:20;;;;;;;8.60;2.67;;;9.70;1.00;;;;;;6252076;22;20412;-84
2023/12/09 12:25:49;;;;;;;9.47;3.10;;;9.70;1.00;;;;;;6252153;22;20187;-84
2023/12/09 12:28:15;;;;;;;14.90;3.17;;;9.60;1.00;;;;;;6251078;22;20422;-83
2023/12/09 12:30:42;;;;;;;7.77;3.17;;;9.60;1.00;;;;;;6279702;22;20390;-83
2023/12/09 12:33:07;;;;;;;11.23;4.87;;;9.50;1.00;;;;;;6250681;22;20181;-82
2023/12/09 12:35:33;;;;;;;8.57;3.33;;;9.40;1.00;;;;;;6281583;22;20379;-85
2023/12/09 12:37:58;;;;;;;7.67;4.53;;;9.30;1.00;;;;;;6253837;22;20216;-83
2023/12/09 12:40:24;;;;;;;11.63;6.77;;;9.30;1.00;;;;;;6278360;22;20195;-83
2023/12/09 12:42:50;;;;;;;12.57;4.57;;;9.20;1.00;;;;;;6279325;22;20206;-83
2023/12/09 12:45:19;;;;;;;7.47;3.67;;;9.20;1.00;;;;;;6278608;22;20168;-84
2023/12/09 12:47:48;;;;;;;12.17;4.50;;;9.20;1.00;;;;;;6278601;22;20225;-83
2023/12/09 12:50:14;;;;;;;5.67;2.63;;;9.20;1.00;;;;;;6277848;22;21025;-83
2023/12/09 12:52:40;;;;;;;7.07;3.97;;;9.10;1.00;;;;;;6278515;22;20430;-83
2023/12/09 12:55:10;;;;;;;10.50;3.47;;;9.10;1.00;;;;;;6280618;22;21016;-83